Terminal Aerodrome Forecast
Issued by NWS Cleveland, OH

Home | Current Version | Previous Version | Text Only | Print | Product List | Glossary On
Versions: 1 2 3 4 5 6 7 8 9 10 11 12 13 14 15 16 17 18 19 20 21 22 23 24 25
000
FTUS41 KCLE 211100
TAFTOL
TAF
KTOL 211136Z 2112/2212 23012G20KT P6SM FEW060
     FM211330 23018G28KT P6SM SCT060
     FM211600 25022G35KT P6SM BKN060
     FM212300 26015G25KT P6SM VCSH BKN060
     FM220200 25012KT P6SM VCSH BKN050=

USA.gov is the U.S. government's official web portal to all federal, state and local government web resources and services.